sensor_id;sensor_type;location;lat;lon;timestamp;temperature;humidity
74901;DHT22;63461;51.416;6.758;2023-08-08T00:01:25;15.30;99.90
74901;DHT22;63461;51.416;6.758;2023-08-08T00:27:55;15.20;99.90
74901;DHT22;63461;51.416;6.758;2023-08-08T00:43:20;15.10;99.90
74901;DHT22;63461;51.416;6.758;2023-08-08T00:46:13;15.10;99.90
74901;DHT22;63461;51.416;6.758;2023-08-08T00:48:47;15.10;99.90
74901;DHT22;63461;51.416;6.758;2023-08-08T00:51:42;15.10;99.90
74901;DHT22;63461;51.416;6.758;2023-08-08T00:57:43;15.00;99.90
74901;DHT22;63461;51.416;6.758;2023-08-08T01:00:12;15.10;99.90
74901;DHT22;63461;51.416;6.758;2023-08-08T01:02:50;15.10;99.90
74901;DHT22;63461;51.416;6.758;2023-08-08T01:09:41;15.00;99.90
74901;DHT22;63461;51.416;6.758;2023-08-08T01:12:59;15.00;99.90
74901;DHT22;63461;51.416;6.758;2023-08-08T01:16:07;15.10;99.90
74901;DHT22;63461;51.416;6.758;2023-08-08T01:18:44;15.00;99.90
74901;DHT22;63461;51.416;6.758;2023-08-08T01:22:14;14.90;99.90
74901;DHT22;63461;51.416;6.758;2023-08-08T01:28:38;14.90;99.90
74901;DHT22;63461;51.416;6.758;2023-08-08T01:31:35;14.90;99.90
74901;DHT22;63461;51.416;6.758;2023-08-08T01:46:33;14.90;99.90
74901;DHT22;63461;51.416;6.758;2023-08-08T01:49:24;15.00;99.90
74901;DHT22;63461;51.416;6.758;2023-08-08T01:51:50;15.00;99.90
74901;DHT22;63461;51.416;6.758;2023-08-08T01:54:21;15.00;99.90
74901;DHT22;63461;51.416;6.758;2023-08-08T01:56:49;15.10;99.90
74901;DHT22;63461;51.416;6.758;2023-08-08T01:59:15;15.00;99.90
74901;DHT22;63461;51.416;6.758;2023-08-08T02:01:42;15.00;99.90
74901;DHT22;63461;51.416;6.758;2023-08-08T02:04:08;14.90;99.90
74901;DHT22;63461;51.416;6.758;2023-08-08T02:06:34;14.90;99.90
74901;DHT22;63461;51.416;6.758;2023-08-08T02:09:00;14.90;99.90
74901;DHT22;63461;51.416;6.758;2023-08-08T02:11:25;14.90;99.90
74901;DHT22;63461;51.416;6.758;2023-08-08T02:13:53;14.90;99.90
74901;DHT22;63461;51.416;6.758;2023-08-08T02:16:18;14.90;99.90
74901;DHT22;63461;51.416;6.758;2023-08-08T02:18:44;14.90;99.90
74901;DHT22;63461;51.416;6.758;2023-08-08T02:21:10;14.90;99.90
74901;DHT22;63461;51.416;6.758;2023-08-08T02:23:36;14.90;99.90
74901;DHT22;63461;51.416;6.758;2023-08-08T02:26:02;15.00;99.90
74901;DHT22;63461;51.416;6.758;2023-08-08T02:28:28;14.90;99.90
74901;DHT22;63461;51.416;6.758;2023-08-08T02:30:54;15.00;99.90
74901;DHT22;63461;51.416;6.758;2023-08-08T02:33:19;15.00;99.90
74901;DHT22;63461;51.416;6.758;2023-08-08T02:35:45;15.00;99.90
74901;DHT22;63461;51.416;6.758;2023-08-08T02:38:11;15.00;99.90
74901;DHT22;63461;51.416;6.758;2023-08-08T02:40:40;15.10;99.90
74901;DHT22;63461;51.416;6.758;2023-08-08T02:43:06;15.10;99.90
74901;DHT22;63461;51.416;6.758;2023-08-08T02:45:32;15.00;99.90
74901;DHT22;63461;51.416;6.758;2023-08-08T02:47:58;15.00;99.90
74901;DHT22;63461;51.416;6.758;2023-08-08T02:50:24;15.00;99.90
74901;DHT22;63461;51.416;6.758;2023-08-08T02:52:49;15.00;99.90
74901;DHT22;63461;51.416;6.758;2023-08-08T02:55:16;14.90;99.90
74901;DHT22;63461;51.416;6.758;2023-08-08T02:57:46;15.00;99.90
74901;DHT22;63461;51.416;6.758;2023-08-08T03:00:12;15.00;99.90
74901;DHT22;63461;51.416;6.758;2023-08-08T03:02:41;15.00;99.90
74901;DHT22;63461;51.416;6.758;2023-08-08T03:05:08;15.00;99.90
74901;DHT22;63461;51.416;6.758;2023-08-08T03:07:34;15.00;99.90
74901;DHT22;63461;51.416;6.758;2023-08-08T03:10:00;15.00;99.90
74901;DHT22;63461;51.416;6.758;2023-08-08T03:12:29;14.90;99.90
74901;DHT22;63461;51.416;6.758;2023-08-08T03:14:54;14.90;99.90
74901;DHT22;63461;51.416;6.758;2023-08-08T03:17:21;14.90;99.90
74901;DHT22;63461;51.416;6.758;2023-08-08T03:19:47;15.00;99.90
74901;DHT22;63461;51.416;6.758;2023-08-08T03:22:14;15.00;99.90
74901;DHT22;63461;51.416;6.758;2023-08-08T03:24:40;15.00;99.90
74901;DHT22;63461;51.416;6.758;2023-08-08T03:27:05;14.80;99.90
74901;DHT22;63461;51.416;6.758;2023-08-08T03:29:31;14.90;99.90
74901;DHT22;63461;51.416;6.758;2023-08-08T03:31:58;14.80;99.90
74901;DHT22;63461;51.416;6.758;2023-08-08T03:34:27;14.80;99.90
74901;DHT22;63461;51.416;6.758;2023-08-08T03:36:53;14.80;99.90
74901;DHT22;63461;51.416;6.758;2023-08-08T03:39:19;14.70;99.90
74901;DHT22;63461;51.416;6.758;2023-08-08T03:41:45;14.80;99.90
74901;DHT22;63461;51.416;6.758;2023-08-08T03:44:11;14.70;99.90
74901;DHT22;63461;51.416;6.758;2023-08-08T03:46:38;14.60;99.90
74901;DHT22;63461;51.416;6.758;2023-08-08T03:49:04;14.50;99.90
74901;DHT22;63461;51.416;6.758;2023-08-08T03:51:30;14.70;99.90
74901;DHT22;63461;51.416;6.758;2023-08-08T03:53:56;14.70;99.90
74901;DHT22;63461;51.416;6.758;2023-08-08T03:56:22;14.70;99.90
74901;DHT22;63461;51.416;6.758;2023-08-08T03:58:48;14.70;99.90
74901;DHT22;63461;51.416;6.758;2023-08-08T04:01:14;14.70;99.90
74901;DHT22;63461;51.416;6.758;2023-08-08T04:03:40;14.60;99.90
74901;DHT22;63461;51.416;6.758;2023-08-08T04:06:05;14.70;99.90
74901;DHT22;63461;51.416;6.758;2023-08-08T04:08:32;14.70;99.90
74901;DHT22;63461;51.416;6.758;2023-08-08T04:10:58;14.60;99.90
74901;DHT22;63461;51.416;6.758;2023-08-08T04:13:24;14.60;99.90
74901;DHT22;63461;51.416;6.758;2023-08-08T04:15:50;14.60;99.90
74901;DHT22;63461;51.416;6.758;2023-08-08T04:18:17;14.70;99.90
74901;DHT22;63461;51.416;6.758;2023-08-08T04:20:45;14.70;99.90
74901;DHT22;63461;51.416;6.758;2023-08-08T04:23:11;14.60;99.90
74901;DHT22;63461;51.416;6.758;2023-08-08T04:25:36;14.70;99.90
74901;DHT22;63461;51.416;6.758;2023-08-08T04:28:02;14.70;99.90
74901;DHT22;63461;51.416;6.758;2023-08-08T04:30:29;14.70;99.90
74901;DHT22;63461;51.416;6.758;2023-08-08T04:32:54;14.70;99.90
74901;DHT22;63461;51.416;6.758;2023-08-08T04:35:20;14.70;99.90
74901;DHT22;63461;51.416;6.758;2023-08-08T04:37:46;14.90;99.90
74901;DHT22;63461;51.416;6.758;2023-08-08T04:40:12;14.80;99.90
74901;DHT22;63461;51.416;6.758;2023-08-08T04:42:38;14.70;99.90
74901;DHT22;63461;51.416;6.758;2023-08-08T04:45:04;14.70;99.90
74901;DHT22;63461;51.416;6.758;2023-08-08T04:47:30;14.70;99.90
74901;DHT22;63461;51.416;6.758;2023-08-08T04:49:56;14.70;99.90
74901;DHT22;63461;51.416;6.758;2023-08-08T04:52:22;14.70;99.90
74901;DHT22;63461;51.416;6.758;2023-08-08T04:54:47;14.80;99.90
74901;DHT22;63461;51.416;6.758;2023-08-08T04:57:13;14.90;99.90
74901;DHT22;63461;51.416;6.758;2023-08-08T04:59:39;14.70;99.90
74901;DHT22;63461;51.416;6.758;2023-08-08T05:02:05;14.80;99.90
74901;DHT22;63461;51.416;6.758;2023-08-08T05:04:31;14.80;99.90
74901;DHT22;63461;51.416;6.758;2023-08-08T05:06:57;14.80;99.90
74901;DHT22;63461;51.416;6.758;2023-08-08T05:09:23;14.80;99.90
74901;DHT22;63461;51.416;6.758;2023-08-08T05:11:52;14.80;99.90
74901;DHT22;63461;51.416;6.758;2023-08-08T05:14:18;14.70;99.90
74901;DHT22;63461;51.416;6.758;2023-08-08T05:16:44;14.80;99.90
74901;DHT22;63461;51.416;6.758;2023-08-08T05:19:10;14.80;99.90
74901;DHT22;63461;51.416;6.758;2023-08-08T05:21:36;14.80;99.90
74901;DHT22;63461;51.416;6.758;2023-08-08T05:24:02;14.90;99.90
74901;DHT22;63461;51.416;6.758;2023-08-08T05:26:28;14.90;99.90
74901;DHT22;63461;51.416;6.758;2023-08-08T05:28:53;14.80;99.90
74901;DHT22;63461;51.416;6.758;2023-08-08T05:31:19;14.90;99.90
74901;DHT22;63461;51.416;6.758;2023-08-08T05:33:45;15.00;99.90
74901;DHT22;63461;51.416;6.758;2023-08-08T05:36:11;15.00;99.90
74901;DHT22;63461;51.416;6.758;2023-08-08T05:38:37;15.00;99.90
74901;DHT22;63461;51.416;6.758;2023-08-08T05:41:02;15.10;99.90
74901;DHT22;63461;51.416;6.758;2023-08-08T05:43:28;15.00;99.90
74901;DHT22;63461;51.416;6.758;2023-08-08T05:45:57;14.90;99.90
74901;DHT22;63461;51.416;6.758;2023-08-08T05:48:22;15.00;99.90
74901;DHT22;63461;51.416;6.758;2023-08-08T05:50:48;15.00;99.90
74901;DHT22;63461;51.416;6.758;2023-08-08T05:53:14;15.00;99.90
74901;DHT22;63461;51.416;6.758;2023-08-08T05:55:41;15.10;99.90
74901;DHT22;63461;51.416;6.758;2023-08-08T05:58:10;15.10;99.90
74901;DHT22;63461;51.416;6.758;2023-08-08T06:00:36;15.10;99.90
74901;DHT22;63461;51.416;6.758;2023-08-08T06:03:02;15.20;99.90
74901;DHT22;63461;51.416;6.758;2023-08-08T06:05:28;15.10;99.90
74901;DHT22;63461;51.416;6.758;2023-08-08T06:07:54;15.20;99.90
74901;DHT22;63461;51.416;6.758;2023-08-08T06:10:23;15.30;99.90
74901;DHT22;63461;51.416;6.758;2023-08-08T06:12:49;15.20;99.90
74901;DHT22;63461;51.416;6.758;2023-08-08T06:15:14;15.10;99.90
74901;DHT22;63461;51.416;6.758;2023-08-08T06:17:40;15.10;99.90
74901;DHT22;63461;51.416;6.758;2023-08-08T06:20:06;15.20;99.90
74901;DHT22;63461;51.416;6.758;2023-08-08T06:22:33;15.30;99.90
74901;DHT22;63461;51.416;6.758;2023-08-08T06:24:59;15.20;99.90
74901;DHT22;63461;51.416;6.758;2023-08-08T06:27:25;15.30;99.90
74901;DHT22;63461;51.416;6.758;2023-08-08T06:29:50;15.50;99.90
74901;DHT22;63461;51.416;6.758;2023-08-08T06:32:16;15.40;99.90
74901;DHT22;63461;51.416;6.758;2023-08-08T06:34:42;15.40;99.90
74901;DHT22;63461;51.416;6.758;2023-08-08T06:37:08;15.60;99.90
74901;DHT22;63461;51.416;6.758;2023-08-08T06:39:34;15.70;99.90
74901;DHT22;63461;51.416;6.758;2023-08-08T06:42:00;15.70;99.90
74901;DHT22;63461;51.416;6.758;2023-08-08T06:44:44;15.60;99.90
74901;DHT22;63461;51.416;6.758;2023-08-08T06:47:10;15.70;99.90
74901;DHT22;63461;51.416;6.758;2023-08-08T06:49:40;15.60;99.90
74901;DHT22;63461;51.416;6.758;2023-08-08T06:52:06;15.50;99.90
74901;DHT22;63461;51.416;6.758;2023-08-08T06:54:32;15.60;99.90
74901;DHT22;63461;51.416;6.758;2023-08-08T06:57:00;15.80;99.90
74901;DHT22;63461;51.416;6.758;2023-08-08T06:59:27;15.80;99.90
74901;DHT22;63461;51.416;6.758;2023-08-08T07:01:53;15.70;99.90
74901;DHT22;63461;51.416;6.758;2023-08-08T07:04:19;15.70;99.90
74901;DHT22;63461;51.416;6.758;2023-08-08T07:06:45;15.80;99.90
74901;DHT22;63461;51.416;6.758;2023-08-08T07:09:11;15.80;99.90
74901;DHT22;63461;51.416;6.758;2023-08-08T07:11:37;15.80;99.90
74901;DHT22;63461;51.416;6.758;2023-08-08T07:14:03;15.80;99.90
74901;DHT22;63461;51.416;6.758;2023-08-08T07:16:29;15.70;99.90
74901;DHT22;63461;51.416;6.758;2023-08-08T07:18:55;15.80;99.90
74901;DHT22;63461;51.416;6.758;2023-08-08T07:21:21;15.90;99.90
74901;DHT22;63461;51.416;6.758;2023-08-08T07:23:47;16.00;99.90
74901;DHT22;63461;51.416;6.758;2023-08-08T07:26:13;16.00;99.90
74901;DHT22;63461;51.416;6.758;2023-08-08T07:28:39;16.20;99.90
74901;DHT22;63461;51.416;6.758;2023-08-08T07:31:05;16.30;99.90
74901;DHT22;63461;51.416;6.758;2023-08-08T07:33:33;16.30;99.90
74901;DHT22;63461;51.416;6.758;2023-08-08T07:35:59;16.40;99.90
74901;DHT22;63461;51.416;6.758;2023-08-08T07:38:25;16.40;99.90
74901;DHT22;63461;51.416;6.758;2023-08-08T07:40:51;16.40;99.90
74901;DHT22;63461;51.416;6.758;2023-08-08T07:43:17;16.40;99.90
74901;DHT22;63461;51.416;6.758;2023-08-08T07:45:42;16.60;99.90
74901;DHT22;63461;51.416;6.758;2023-08-08T07:48:08;16.60;99.90
74901;DHT22;63461;51.416;6.758;2023-08-08T07:50:34;16.70;99.90
74901;DHT22;63461;51.416;6.758;2023-08-08T07:53:00;16.80;99.90
74901;DHT22;63461;51.416;6.758;2023-08-08T07:55:26;16.60;99.90
74901;DHT22;63461;51.416;6.758;2023-08-08T07:57:51;16.60;99.90
74901;DHT22;63461;51.416;6.758;2023-08-08T08:00:18;16.60;99.90
74901;DHT22;63461;51.416;6.758;2023-08-08T08:02:45;16.60;99.90
74901;DHT22;63461;51.416;6.758;2023-08-08T08:05:11;16.60;99.90
74901;DHT22;63461;51.416;6.758;2023-08-08T08:07:38;16.60;99.90
74901;DHT22;63461;51.416;6.758;2023-08-08T08:10:06;16.80;99.90
74901;DHT22;63461;51.416;6.758;2023-08-08T08:12:33;16.90;99.90
74901;DHT22;63461;51.416;6.758;2023-08-08T08:14:59;17.10;99.90
74901;DHT22;63461;51.416;6.758;2023-08-08T08:17:25;17.20;99.90
74901;DHT22;63461;51.416;6.758;2023-08-08T08:19:51;17.10;99.90
74901;DHT22;63461;51.416;6.758;2023-08-08T08:22:17;17.00;99.90
74901;DHT22;63461;51.416;6.758;2023-08-08T08:24:43;17.10;99.90
74901;DHT22;63461;51.416;6.758;2023-08-08T08:27:09;17.20;99.90
74901;DHT22;63461;51.416;6.758;2023-08-08T08:29:34;17.20;99.90
74901;DHT22;63461;51.416;6.758;2023-08-08T08:32:00;17.20;99.90
74901;DHT22;63461;51.416;6.758;2023-08-08T08:34:26;17.20;99.90
74901;DHT22;63461;51.416;6.758;2023-08-08T08:36:52;17.30;99.90
74901;DHT22;63461;51.416;6.758;2023-08-08T08:39:17;17.20;99.90
74901;DHT22;63461;51.416;6.758;2023-08-08T08:41:48;17.20;99.90
74901;DHT22;63461;51.416;6.758;2023-08-08T08:44:16;17.20;99.90
74901;DHT22;63461;51.416;6.758;2023-08-08T08:46:42;17.30;99.90
74901;DHT22;63461;51.416;6.758;2023-08-08T08:49:11;17.40;99.90
74901;DHT22;63461;51.416;6.758;2023-08-08T08:51:39;17.50;99.90
74901;DHT22;63461;51.416;6.758;2023-08-08T08:54:05;17.50;99.90
74901;DHT22;63461;51.416;6.758;2023-08-08T08:56:31;17.50;99.90
74901;DHT22;63461;51.416;6.758;2023-08-08T08:58:59;17.70;99.90
74901;DHT22;63461;51.416;6.758;2023-08-08T09:01:25;17.80;99.90
74901;DHT22;63461;51.416;6.758;2023-08-08T09:03:53;17.80;99.90
74901;DHT22;63461;51.416;6.758;2023-08-08T09:06:19;17.90;99.90
74901;DHT22;63461;51.416;6.758;2023-08-08T09:08:46;17.90;99.90
74901;DHT22;63461;51.416;6.758;2023-08-08T09:11:13;17.90;99.90
74901;DHT22;63461;51.416;6.758;2023-08-08T09:13:39;17.90;99.90
74901;DHT22;63461;51.416;6.758;2023-08-08T09:16:09;17.90;99.90
74901;DHT22;63461;51.416;6.758;2023-08-08T09:18:35;17.90;99.90
74901;DHT22;63461;51.416;6.758;2023-08-08T09:21:04;17.90;99.90
74901;DHT22;63461;51.416;6.758;2023-08-08T09:23:30;17.90;99.90
74901;DHT22;63461;51.416;6.758;2023-08-08T09:25:56;17.90;99.90
74901;DHT22;63461;51.416;6.758;2023-08-08T09:28:22;17.80;99.90
74901;DHT22;63461;51.416;6.758;2023-08-08T09:30:48;18.00;99.90
74901;DHT22;63461;51.416;6.758;2023-08-08T09:33:14;18.10;99.90
74901;DHT22;63461;51.416;6.758;2023-08-08T09:35:40;18.10;99.90
74901;DHT22;63461;51.416;6.758;2023-08-08T09:38:06;18.20;99.90
74901;DHT22;63461;51.416;6.758;2023-08-08T09:40:33;18.20;99.90
74901;DHT22;63461;51.416;6.758;2023-08-08T09:42:58;18.20;99.90
74901;DHT22;63461;51.416;6.758;2023-08-08T09:45:24;18.10;99.90
74901;DHT22;63461;51.416;6.758;2023-08-08T09:47:53;18.00;99.90
74901;DHT22;63461;51.416;6.758;2023-08-08T09:50:19;18.00;99.90
74901;DHT22;63461;51.416;6.758;2023-08-08T09:52:49;18.00;99.90
74901;DHT22;63461;51.416;6.758;2023-08-08T09:55:15;18.10;99.90
74901;DHT22;63461;51.416;6.758;2023-08-08T09:57:41;18.10;99.90
74901;DHT22;63461;51.416;6.758;2023-08-08T10:00:08;18.10;99.90
74901;DHT22;63461;51.416;6.758;2023-08-08T10:02:43;18.00;99.90
74901;DHT22;63461;51.416;6.758;2023-08-08T10:05:10;18.10;99.90
74901;DHT22;63461;51.416;6.758;2023-08-08T10:07:39;18.10;99.90
74901;DHT22;63461;51.416;6.758;2023-08-08T10:10:07;18.20;99.90
74901;DHT22;63461;51.416;6.758;2023-08-08T10:12:37;18.40;99.90
74901;DHT22;63461;51.416;6.758;2023-08-08T10:15:08;18.40;99.90
74901;DHT22;63461;51.416;6.758;2023-08-08T10:17:38;18.60;99.90
74901;DHT22;63461;51.416;6.758;2023-08-08T10:20:06;18.60;99.90
74901;DHT22;63461;51.416;6.758;2023-08-08T10:22:42;18.60;99.90
74901;DHT22;63461;51.416;6.758;2023-08-08T10:25:09;18.70;99.90
74901;DHT22;63461;51.416;6.758;2023-08-08T10:27:36;18.90;99.90
74901;DHT22;63461;51.416;6.758;2023-08-08T10:30:05;18.80;99.90
74901;DHT22;63461;51.416;6.758;2023-08-08T10:32:41;18.80;99.90
74901;DHT22;63461;51.416;6.758;2023-08-08T10:35:07;19.00;99.90
74901;DHT22;63461;51.416;6.758;2023-08-08T10:37:35;19.00;99.90
74901;DHT22;63461;51.416;6.758;2023-08-08T10:40:01;19.00;99.90
74901;DHT22;63461;51.416;6.758;2023-08-08T10:42:32;18.90;99.90
74901;DHT22;63461;51.416;6.758;2023-08-08T10:44:59;19.10;99.90
74901;DHT22;63461;51.416;6.758;2023-08-08T10:47:34;19.00;99.90
74901;DHT22;63461;51.416;6.758;2023-08-08T10:50:04;19.10;99.90
74901;DHT22;63461;51.416;6.758;2023-08-08T10:52:33;19.10;99.90
74901;DHT22;63461;51.416;6.758;2023-08-08T10:55:01;19.10;99.90
74901;DHT22;63461;51.416;6.758;2023-08-08T10:57:28;19.20;99.90
74901;DHT22;63461;51.416;6.758;2023-08-08T10:59:55;19.00;99.90
74901;DHT22;63461;51.416;6.758;2023-08-08T11:02:41;18.70;99.90
74901;DHT22;63461;51.416;6.758;2023-08-08T11:05:07;18.60;99.90
74901;DHT22;63461;51.416;6.758;2023-08-08T11:07:35;18.40;99.90
74901;DHT22;63461;51.416;6.758;2023-08-08T11:10:03;18.30;99.90
74901;DHT22;63461;51.416;6.758;2023-08-08T11:12:29;18.40;99.90
74901;DHT22;63461;51.416;6.758;2023-08-08T11:14:55;18.60;99.90
74901;DHT22;63461;51.416;6.758;2023-08-08T11:17:21;18.80;99.90
74901;DHT22;63461;51.416;6.758;2023-08-08T11:19:47;18.70;99.90
74901;DHT22;63461;51.416;6.758;2023-08-08T11:22:12;18.70;99.90
74901;DHT22;63461;51.416;6.758;2023-08-08T11:24:38;18.80;99.90
74901;DHT22;63461;51.416;6.758;2023-08-08T11:27:04;18.90;99.90
74901;DHT22;63461;51.416;6.758;2023-08-08T11:29:30;18.90;99.90
74901;DHT22;63461;51.416;6.758;2023-08-08T11:31:59;18.90;99.90
74901;DHT22;63461;51.416;6.758;2023-08-08T11:34:25;19.00;99.90
74901;DHT22;63461;51.416;6.758;2023-08-08T11:36:51;19.10;99.90
74901;DHT22;63461;51.416;6.758;2023-08-08T11:39:17;19.20;99.90
74901;DHT22;63461;51.416;6.758;2023-08-08T11:41:43;19.20;99.90
74901;DHT22;63461;51.416;6.758;2023-08-08T11:44:10;19.10;99.90
74901;DHT22;63461;51.416;6.758;2023-08-08T11:46:46;19.10;99.90
74901;DHT22;63461;51.416;6.758;2023-08-08T11:49:14;19.10;99.90
74901;DHT22;63461;51.416;6.758;2023-08-08T11:51:43;19.30;99.90
74901;DHT22;63461;51.416;6.758;2023-08-08T11:54:09;19.30;99.90
74901;DHT22;63461;51.416;6.758;2023-08-08T11:56:35;19.40;99.90
74901;DHT22;63461;51.416;6.758;2023-08-08T11:59:02;19.50;99.90
74901;DHT22;63461;51.416;6.758;2023-08-08T12:01:31;19.50;99.90
74901;DHT22;63461;51.416;6.758;2023-08-08T12:03:57;19.40;99.90
74901;DHT22;63461;51.416;6.758;2023-08-08T12:06:28;19.40;99.90
74901;DHT22;63461;51.416;6.758;2023-08-08T12:08:55;19.30;99.90
74901;DHT22;63461;51.416;6.758;2023-08-08T12:11:21;19.40;99.90
74901;DHT22;63461;51.416;6.758;2023-08-08T12:13:47;19.40;99.90
74901;DHT22;63461;51.416;6.758;2023-08-08T12:16:13;19.70;99.90
74901;DHT22;63461;51.416;6.758;2023-08-08T12:18:40;19.90;99.90
74901;DHT22;63461;51.416;6.758;2023-08-08T12:21:08;19.80;99.90
74901;DHT22;63461;51.416;6.758;2023-08-08T12:23:35;19.90;99.90
74901;DHT22;63461;51.416;6.758;2023-08-08T12:26:03;19.80;99.90
74901;DHT22;63461;51.416;6.758;2023-08-08T12:28:31;19.90;99.90
74901;DHT22;63461;51.416;6.758;2023-08-08T12:30:57;19.70;99.90
74901;DHT22;63461;51.416;6.758;2023-08-08T12:33:23;19.40;99.90
74901;DHT22;63461;51.416;6.758;2023-08-08T12:35:48;19.40;99.90
74901;DHT22;63461;51.416;6.758;2023-08-08T12:38:15;19.50;99.90
74901;DHT22;63461;51.416;6.758;2023-08-08T12:40:41;19.70;99.90
74901;DHT22;63461;51.416;6.758;2023-08-08T12:43:06;19.70;99.90
74901;DHT22;63461;51.416;6.758;2023-08-08T12:45:32;19.80;99.90
74901;DHT22;63461;51.416;6.758;2023-08-08T12:47:58;19.80;99.90
74901;DHT22;63461;51.416;6.758;2023-08-08T12:50:24;20.00;99.90
74901;DHT22;63461;51.416;6.758;2023-08-08T12:52:50;20.00;99.90
74901;DHT22;63461;51.416;6.758;2023-08-08T12:55:16;20.00;99.90
74901;DHT22;63461;51.416;6.758;2023-08-08T12:57:43;20.10;99.90
74901;DHT22;63461;51.416;6.758;2023-08-08T13:00:10;20.10;99.90
74901;DHT22;63461;51.416;6.758;2023-08-08T13:02:38;20.20;99.90
74901;DHT22;63461;51.416;6.758;2023-08-08T13:05:04;20.20;99.90
74901;DHT22;63461;51.416;6.758;2023-08-08T13:07:32;20.30;99.90
74901;DHT22;63461;51.416;6.758;2023-08-08T13:09:59;20.30;99.90
74901;DHT22;63461;51.416;6.758;2023-08-08T13:12:25;20.50;99.90
74901;DHT22;63461;51.416;6.758;2023-08-08T13:14:50;20.50;99.90
74901;DHT22;63461;51.416;6.758;2023-08-08T13:17:16;20.50;99.90
74901;DHT22;63461;51.416;6.758;2023-08-08T13:19:42;20.60;99.90
74901;DHT22;63461;51.416;6.758;2023-08-08T13:22:08;20.50;99.90
74901;DHT22;63461;51.416;6.758;2023-08-08T13:24:33;20.30;99.90
74901;DHT22;63461;51.416;6.758;2023-08-08T13:26:59;20.40;99.90
74901;DHT22;63461;51.416;6.758;2023-08-08T13:29:25;20.30;99.90
74901;DHT22;63461;51.416;6.758;2023-08-08T13:31:51;20.40;99.90
74901;DHT22;63461;51.416;6.758;2023-08-08T13:34:16;20.50;99.90
74901;DHT22;63461;51.416;6.758;2023-08-08T13:36:42;20.40;99.90
74901;DHT22;63461;51.416;6.758;2023-08-08T13:39:08;20.40;99.90
74901;DHT22;63461;51.416;6.758;2023-08-08T13:41:37;20.50;99.90
74901;DHT22;63461;51.416;6.758;2023-08-08T13:44:03;20.40;99.90
74901;DHT22;63461;51.416;6.758;2023-08-08T13:46:29;20.40;99.90
74901;DHT22;63461;51.416;6.758;2023-08-08T13:48:54;20.50;99.90
74901;DHT22;63461;51.416;6.758;2023-08-08T13:51:20;20.50;99.90
74901;DHT22;63461;51.416;6.758;2023-08-08T13:53:46;20.40;99.90
74901;DHT22;63461;51.416;6.758;2023-08-08T13:56:14;20.60;99.90
74901;DHT22;63461;51.416;6.758;2023-08-08T13:58:40;20.40;99.90
74901;DHT22;63461;51.416;6.758;2023-08-08T14:01:06;20.50;99.90
74901;DHT22;63461;51.416;6.758;2023-08-08T14:03:32;20.50;99.90
74901;DHT22;63461;51.416;6.758;2023-08-08T14:05:58;20.50;99.90
74901;DHT22;63461;51.416;6.758;2023-08-08T14:08:23;20.60;99.90
74901;DHT22;63461;51.416;6.758;2023-08-08T14:10:49;20.50;99.90
74901;DHT22;63461;51.416;6.758;2023-08-08T14:13:15;20.40;99.90
74901;DHT22;63461;51.416;6.758;2023-08-08T14:15:41;20.40;99.90
74901;DHT22;63461;51.416;6.758;2023-08-08T14:18:07;20.50;99.90
74901;DHT22;63461;51.416;6.758;2023-08-08T14:20:33;20.40;99.90
74901;DHT22;63461;51.416;6.758;2023-08-08T14:22:59;20.30;99.90
74901;DHT22;63461;51.416;6.758;2023-08-08T14:25:25;20.40;99.90
74901;DHT22;63461;51.416;6.758;2023-08-08T14:27:51;20.40;99.90
74901;DHT22;63461;51.416;6.758;2023-08-08T14:30:17;20.40;99.90
74901;DHT22;63461;51.416;6.758;2023-08-08T14:32:42;20.40;99.90
74901;DHT22;63461;51.416;6.758;2023-08-08T14:35:08;20.30;99.90
74901;DHT22;63461;51.416;6.758;2023-08-08T14:37:35;20.20;99.90
74901;DHT22;63461;51.416;6.758;2023-08-08T14:40:02;20.20;99.90
74901;DHT22;63461;51.416;6.758;2023-08-08T14:42:28;20.20;99.90
74901;DHT22;63461;51.416;6.758;2023-08-08T14:44:54;20.20;99.90
74901;DHT22;63461;51.416;6.758;2023-08-08T14:47:20;20.30;99.90
74901;DHT22;63461;51.416;6.758;2023-08-08T14:49:46;20.40;99.90
74901;DHT22;63461;51.416;6.758;2023-08-08T14:52:12;20.50;99.90
74901;DHT22;63461;51.416;6.758;2023-08-08T14:54:39;20.40;99.90
74901;DHT22;63461;51.416;6.758;2023-08-08T14:57:05;20.40;99.90
74901;DHT22;63461;51.416;6.758;2023-08-08T14:59:31;20.50;99.90
74901;DHT22;63461;51.416;6.758;2023-08-08T15:01:57;20.50;99.90
74901;DHT22;63461;51.416;6.758;2023-08-08T15:04:22;20.60;99.90
74901;DHT22;63461;51.416;6.758;2023-08-08T15:06:48;20.70;99.90
74901;DHT22;63461;51.416;6.758;2023-08-08T15:09:14;20.70;99.90
74901;DHT22;63461;51.416;6.758;2023-08-08T15:11:40;20.70;99.90
74901;DHT22;63461;51.416;6.758;2023-08-08T15:14:06;20.80;99.90
74901;DHT22;63461;51.416;6.758;2023-08-08T15:16:32;20.90;99.90
74901;DHT22;63461;51.416;6.758;2023-08-08T15:18:58;21.00;99.90
74901;DHT22;63461;51.416;6.758;2023-08-08T15:21:24;20.80;99.90
74901;DHT22;63461;51.416;6.758;2023-08-08T15:23:50;20.70;99.90
74901;DHT22;63461;51.416;6.758;2023-08-08T15:26:16;20.60;99.90
74901;DHT22;63461;51.416;6.758;2023-08-08T15:28:44;20.60;99.90
74901;DHT22;63461;51.416;6.758;2023-08-08T15:31:10;20.70;99.90
74901;DHT22;63461;51.416;6.758;2023-08-08T15:33:36;20.50;99.90
74901;DHT22;63461;51.416;6.758;2023-08-08T15:36:04;20.40;99.90
74901;DHT22;63461;51.416;6.758;2023-08-08T15:38:30;20.50;99.90
74901;DHT22;63461;51.416;6.758;2023-08-08T15:40:56;20.40;99.90
74901;DHT22;63461;51.416;6.758;2023-08-08T15:43:22;20.30;99.90
74901;DHT22;63461;51.416;6.758;2023-08-08T15:45:51;20.40;99.90
74901;DHT22;63461;51.416;6.758;2023-08-08T15:48:17;20.40;99.90
74901;DHT22;63461;51.416;6.758;2023-08-08T15:50:43;20.60;99.90
74901;DHT22;63461;51.416;6.758;2023-08-08T15:53:09;20.60;99.90
74901;DHT22;63461;51.416;6.758;2023-08-08T15:55:36;20.50;99.90
74901;DHT22;63461;51.416;6.758;2023-08-08T15:58:02;20.50;99.90
74901;DHT22;63461;51.416;6.758;2023-08-08T16:00:29;20.60;99.90
74901;DHT22;63461;51.416;6.758;2023-08-08T16:02:54;20.60;99.90
74901;DHT22;63461;51.416;6.758;2023-08-08T16:05:20;20.50;99.90
74901;DHT22;63461;51.416;6.758;2023-08-08T16:07:46;20.30;99.90
74901;DHT22;63461;51.416;6.758;2023-08-08T16:10:12;20.30;99.90
74901;DHT22;63461;51.416;6.758;2023-08-08T16:12:39;20.30;99.90
74901;DHT22;63461;51.416;6.758;2023-08-08T16:15:05;20.30;99.90
74901;DHT22;63461;51.416;6.758;2023-08-08T16:17:31;20.20;99.90
74901;DHT22;63461;51.416;6.758;2023-08-08T16:19:57;20.20;99.90
74901;DHT22;63461;51.416;6.758;2023-08-08T16:22:24;20.20;99.90
74901;DHT22;63461;51.416;6.758;2023-08-08T16:24:50;20.20;99.90
74901;DHT22;63461;51.416;6.758;2023-08-08T16:27:16;20.20;99.90
74901;DHT22;63461;51.416;6.758;2023-08-08T16:29:42;20.30;99.90
74901;DHT22;63461;51.416;6.758;2023-08-08T16:32:08;20.30;99.90